sensor_id;sensor_type;location;lat;lon;timestamp;temperature;humidity
46590;DHT22;32313;48.722;9.362;2023-11-21T00:00:16;6.70;99.90
46590;DHT22;32313;48.722;9.362;2023-11-21T00:02:44;6.70;99.90
46590;DHT22;32313;48.722;9.362;2023-11-21T00:05:12;6.70;99.90
46590;DHT22;32313;48.722;9.362;2023-11-21T00:07:40;6.70;99.90
46590;DHT22;32313;48.722;9.362;2023-11-21T00:10:06;6.60;99.90
46590;DHT22;32313;48.722;9.362;2023-11-21T00:12:34;6.60;99.90
46590;DHT22;32313;48.722;9.362;2023-11-21T00:15:00;6.60;99.90
46590;DHT22;32313;48.722;9.362;2023-11-21T00:17:27;6.60;99.90
46590;DHT22;32313;48.722;9.362;2023-11-21T00:19:53;6.70;99.90
46590;DHT22;32313;48.722;9.362;2023-11-21T00:22:19;6.60;99.90
46590;DHT22;32313;48.722;9.362;2023-11-21T00:24:45;6.60;99.90
46590;DHT22;32313;48.722;9.362;2023-11-21T00:27:11;6.60;99.90
46590;DHT22;32313;48.722;9.362;2023-11-21T00:29:37;6.60;99.90
46590;DHT22;32313;48.722;9.362;2023-11-21T00:32:05;6.60;99.90
46590;DHT22;32313;48.722;9.362;2023-11-21T00:34:31;6.60;99.90
46590;DHT22;32313;48.722;9.362;2023-11-21T00:36:58;6.60;99.90
46590;DHT22;32313;48.722;9.362;2023-11-21T00:39:24;6.60;99.90
46590;DHT22;32313;48.722;9.362;2023-11-21T00:41:51;6.60;99.90
46590;DHT22;32313;48.722;9.362;2023-11-21T00:44:18;6.60;99.90
46590;DHT22;32313;48.722;9.362;2023-11-21T00:46:43;6.60;99.90
46590;DHT22;32313;48.722;9.362;2023-11-21T00:49:09;6.60;99.90
46590;DHT22;32313;48.722;9.362;2023-11-21T00:51:35;6.60;99.90
46590;DHT22;32313;48.722;9.362;2023-11-21T00:54:01;6.60;99.90
46590;DHT22;32313;48.722;9.362;2023-11-21T00:56:27;6.70;99.90
46590;DHT22;32313;48.722;9.362;2023-11-21T00:58:53;6.60;99.90
46590;DHT22;32313;48.722;9.362;2023-11-21T01:01:20;6.70;99.90
46590;DHT22;32313;48.722;9.362;2023-11-21T01:03:46;6.70;99.90
46590;DHT22;32313;48.722;9.362;2023-11-21T01:06:12;6.70;99.90
46590;DHT22;32313;48.722;9.362;2023-11-21T01:08:38;6.60;99.90
46590;DHT22;32313;48.722;9.362;2023-11-21T01:11:04;6.60;99.90
46590;DHT22;32313;48.722;9.362;2023-11-21T01:13:30;6.60;99.90
46590;DHT22;32313;48.722;9.362;2023-11-21T01:15:56;6.60;99.90
46590;DHT22;32313;48.722;9.362;2023-11-21T01:18:22;6.60;99.90
46590;DHT22;32313;48.722;9.362;2023-11-21T01:20:51;6.60;99.90
46590;DHT22;32313;48.722;9.362;2023-11-21T01:23:19;6.70;99.90
46590;DHT22;32313;48.722;9.362;2023-11-21T01:25:45;6.70;99.90
46590;DHT22;32313;48.722;9.362;2023-11-21T01:28:11;6.70;99.90
46590;DHT22;32313;48.722;9.362;2023-11-21T01:30:37;6.70;99.90
46590;DHT22;32313;48.722;9.362;2023-11-21T01:33:03;6.70;99.90
46590;DHT22;32313;48.722;9.362;2023-11-21T01:35:30;6.70;99.90
46590;DHT22;32313;48.722;9.362;2023-11-21T01:37:56;6.70;99.90
46590;DHT22;32313;48.722;9.362;2023-11-21T01:40:21;6.70;99.90
46590;DHT22;32313;48.722;9.362;2023-11-21T01:42:47;6.70;99.90
46590;DHT22;32313;48.722;9.362;2023-11-21T01:45:14;6.70;99.90
46590;DHT22;32313;48.722;9.362;2023-11-21T01:47:41;6.70;99.90
46590;DHT22;32313;48.722;9.362;2023-11-21T01:50:08;6.70;99.90
46590;DHT22;32313;48.722;9.362;2023-11-21T01:52:38;6.70;99.90
46590;DHT22;32313;48.722;9.362;2023-11-21T01:55:06;6.70;99.90
46590;DHT22;32313;48.722;9.362;2023-11-21T01:57:34;6.70;99.90
46590;DHT22;32313;48.722;9.362;2023-11-21T02:00:02;6.70;99.90
46590;DHT22;32313;48.722;9.362;2023-11-21T02:02:45;6.70;99.90
46590;DHT22;32313;48.722;9.362;2023-11-21T02:05:12;6.70;99.90
46590;DHT22;32313;48.722;9.362;2023-11-21T02:07:39;6.70;99.90
46590;DHT22;32313;48.722;9.362;2023-11-21T02:10:07;6.70;99.90
46590;DHT22;32313;48.722;9.362;2023-11-21T02:12:33;6.70;99.90
46590;DHT22;32313;48.722;9.362;2023-11-21T02:15:02;6.70;99.90
46590;DHT22;32313;48.722;9.362;2023-11-21T02:17:30;6.80;99.90
46590;DHT22;32313;48.722;9.362;2023-11-21T02:19:58;6.70;99.90
46590;DHT22;32313;48.722;9.362;2023-11-21T02:22:27;6.70;99.90
46590;DHT22;32313;48.722;9.362;2023-11-21T02:24:56;6.70;99.90
46590;DHT22;32313;48.722;9.362;2023-11-21T02:27:24;6.80;99.90
46590;DHT22;32313;48.722;9.362;2023-11-21T02:29:51;6.80;99.90
46590;DHT22;32313;48.722;9.362;2023-11-21T02:32:22;6.80;99.90
46590;DHT22;32313;48.722;9.362;2023-11-21T02:34:48;6.80;99.90
46590;DHT22;32313;48.722;9.362;2023-11-21T02:37:16;6.80;99.90
46590;DHT22;32313;48.722;9.362;2023-11-21T02:39:42;6.80;99.90
46590;DHT22;32313;48.722;9.362;2023-11-21T02:42:07;6.80;99.90
46590;DHT22;32313;48.722;9.362;2023-11-21T02:44:33;6.80;99.90
46590;DHT22;32313;48.722;9.362;2023-11-21T02:47:01;6.80;99.90
46590;DHT22;32313;48.722;9.362;2023-11-21T02:49:27;6.80;99.90
46590;DHT22;32313;48.722;9.362;2023-11-21T02:51:56;6.80;99.90
46590;DHT22;32313;48.722;9.362;2023-11-21T02:54:22;6.80;99.90
46590;DHT22;32313;48.722;9.362;2023-11-21T02:56:48;6.80;99.90
46590;DHT22;32313;48.722;9.362;2023-11-21T02:59:15;6.80;99.90
46590;DHT22;32313;48.722;9.362;2023-11-21T03:01:41;6.80;99.90
46590;DHT22;32313;48.722;9.362;2023-11-21T03:04:07;6.70;99.90
46590;DHT22;32313;48.722;9.362;2023-11-21T03:06:33;6.70;99.90
46590;DHT22;32313;48.722;9.362;2023-11-21T03:08:59;6.70;99.90
46590;DHT22;32313;48.722;9.362;2023-11-21T03:11:25;6.70;99.90
46590;DHT22;32313;48.722;9.362;2023-11-21T03:13:51;6.70;99.90
46590;DHT22;32313;48.722;9.362;2023-11-21T03:16:18;6.70;99.90
46590;DHT22;32313;48.722;9.362;2023-11-21T03:18:46;6.80;99.90
46590;DHT22;32313;48.722;9.362;2023-11-21T03:21:12;6.80;99.90
46590;DHT22;32313;48.722;9.362;2023-11-21T03:23:38;6.70;99.90
46590;DHT22;32313;48.722;9.362;2023-11-21T03:26:04;6.70;99.90
46590;DHT22;32313;48.722;9.362;2023-11-21T03:28:29;6.70;99.90
46590;DHT22;32313;48.722;9.362;2023-11-21T03:30:56;6.80;99.90
46590;DHT22;32313;48.722;9.362;2023-11-21T03:33:23;6.70;99.90
46590;DHT22;32313;48.722;9.362;2023-11-21T03:35:49;6.80;99.90
46590;DHT22;32313;48.722;9.362;2023-11-21T03:38:15;6.80;99.90
46590;DHT22;32313;48.722;9.362;2023-11-21T03:40:41;6.70;99.90
46590;DHT22;32313;48.722;9.362;2023-11-21T03:43:07;6.70;99.90
46590;DHT22;32313;48.722;9.362;2023-11-21T03:45:33;6.70;99.90
46590;DHT22;32313;48.722;9.362;2023-11-21T03:47:59;6.80;99.90
46590;DHT22;32313;48.722;9.362;2023-11-21T03:50:29;6.70;99.90
46590;DHT22;32313;48.722;9.362;2023-11-21T03:52:55;6.80;99.90
46590;DHT22;32313;48.722;9.362;2023-11-21T03:55:21;6.80;99.90
46590;DHT22;32313;48.722;9.362;2023-11-21T03:57:46;6.80;99.90
46590;DHT22;32313;48.722;9.362;2023-11-21T04:00:12;6.80;99.90
46590;DHT22;32313;48.722;9.362;2023-11-21T04:02:38;6.80;99.90
46590;DHT22;32313;48.722;9.362;2023-11-21T04:05:05;6.70;99.90
46590;DHT22;32313;48.722;9.362;2023-11-21T04:07:32;6.70;99.90
46590;DHT22;32313;48.722;9.362;2023-11-21T04:09:58;6.70;99.90
46590;DHT22;32313;48.722;9.362;2023-11-21T04:12:24;6.70;99.90
46590;DHT22;32313;48.722;9.362;2023-11-21T04:14:50;6.70;99.90
46590;DHT22;32313;48.722;9.362;2023-11-21T04:17:19;6.70;99.90
46590;DHT22;32313;48.722;9.362;2023-11-21T04:19:45;6.70;99.90
46590;DHT22;32313;48.722;9.362;2023-11-21T04:22:11;6.70;99.90
46590;DHT22;32313;48.722;9.362;2023-11-21T04:24:37;6.70;99.90
46590;DHT22;32313;48.722;9.362;2023-11-21T04:27:03;6.70;99.90
46590;DHT22;32313;48.722;9.362;2023-11-21T04:29:29;6.70;99.90
46590;DHT22;32313;48.722;9.362;2023-11-21T04:32:01;6.70;99.90
46590;DHT22;32313;48.722;9.362;2023-11-21T04:34:28;6.70;99.90
46590;DHT22;32313;48.722;9.362;2023-11-21T04:36:56;6.70;99.90
46590;DHT22;32313;48.722;9.362;2023-11-21T04:39:22;6.80;99.90
46590;DHT22;32313;48.722;9.362;2023-11-21T04:41:49;6.80;99.90
46590;DHT22;32313;48.722;9.362;2023-11-21T04:44:23;6.70;99.90
46590;DHT22;32313;48.722;9.362;2023-11-21T04:46:49;6.80;99.90
46590;DHT22;32313;48.722;9.362;2023-11-21T04:49:14;6.70;99.90
46590;DHT22;32313;48.722;9.362;2023-11-21T04:51:40;6.70;99.90
46590;DHT22;32313;48.722;9.362;2023-11-21T04:54:06;6.70;99.90
46590;DHT22;32313;48.722;9.362;2023-11-21T04:56:31;6.70;99.90
46590;DHT22;32313;48.722;9.362;2023-11-21T04:58:57;6.70;99.90
46590;DHT22;32313;48.722;9.362;2023-11-21T05:01:23;6.70;99.90
46590;DHT22;32313;48.722;9.362;2023-11-21T05:03:49;6.70;99.90
46590;DHT22;32313;48.722;9.362;2023-11-21T05:06:15;6.70;99.90
46590;DHT22;32313;48.722;9.362;2023-11-21T05:08:41;6.70;99.90
46590;DHT22;32313;48.722;9.362;2023-11-21T05:11:07;6.60;99.90
46590;DHT22;32313;48.722;9.362;2023-11-21T05:13:35;6.60;99.90
46590;DHT22;32313;48.722;9.362;2023-11-21T05:16:01;6.60;99.90
46590;DHT22;32313;48.722;9.362;2023-11-21T05:18:29;6.60;99.90
46590;DHT22;32313;48.722;9.362;2023-11-21T05:20:55;6.60;99.90
46590;DHT22;32313;48.722;9.362;2023-11-21T05:23:21;6.50;99.90
46590;DHT22;32313;48.722;9.362;2023-11-21T05:25:47;6.50;99.90
46590;DHT22;32313;48.722;9.362;2023-11-21T05:28:13;6.50;99.90
46590;DHT22;32313;48.722;9.362;2023-11-21T05:30:38;6.50;99.90
46590;DHT22;32313;48.722;9.362;2023-11-21T05:33:05;6.50;99.90
46590;DHT22;32313;48.722;9.362;2023-11-21T05:35:31;6.50;99.90
46590;DHT22;32313;48.722;9.362;2023-11-21T05:37:56;6.50;99.90
46590;DHT22;32313;48.722;9.362;2023-11-21T05:40:22;6.50;99.90
46590;DHT22;32313;48.722;9.362;2023-11-21T05:42:48;6.50;99.90
46590;DHT22;32313;48.722;9.362;2023-11-21T05:45:14;6.40;99.90
46590;DHT22;32313;48.722;9.362;2023-11-21T05:47:45;6.40;99.90
46590;DHT22;32313;48.722;9.362;2023-11-21T05:50:13;6.50;99.90
46590;DHT22;32313;48.722;9.362;2023-11-21T05:52:44;6.50;99.90
46590;DHT22;32313;48.722;9.362;2023-11-21T05:55:10;6.50;99.90
46590;DHT22;32313;48.722;9.362;2023-11-21T05:57:37;6.50;99.90
46590;DHT22;32313;48.722;9.362;2023-11-21T06:00:17;6.50;99.90
46590;DHT22;32313;48.722;9.362;2023-11-21T06:02:46;6.60;99.90
46590;DHT22;32313;48.722;9.362;2023-11-21T06:05:12;6.60;99.90
46590;DHT22;32313;48.722;9.362;2023-11-21T06:07:38;6.60;99.90
46590;DHT22;32313;48.722;9.362;2023-11-21T06:10:06;6.60;99.90
46590;DHT22;32313;48.722;9.362;2023-11-21T06:12:34;6.60;99.90
46590;DHT22;32313;48.722;9.362;2023-11-21T06:15:05;6.60;99.90
46590;DHT22;32313;48.722;9.362;2023-11-21T06:17:31;6.60;99.90
46590;DHT22;32313;48.722;9.362;2023-11-21T06:19:57;6.50;99.90
46590;DHT22;32313;48.722;9.362;2023-11-21T06:22:23;6.50;99.90
46590;DHT22;32313;48.722;9.362;2023-11-21T06:24:49;6.40;99.90
46590;DHT22;32313;48.722;9.362;2023-11-21T06:27:14;6.40;99.90
46590;DHT22;32313;48.722;9.362;2023-11-21T06:29:41;6.30;99.90
46590;DHT22;32313;48.722;9.362;2023-11-21T06:32:07;6.30;99.90
46590;DHT22;32313;48.722;9.362;2023-11-21T06:34:33;6.30;99.90
46590;DHT22;32313;48.722;9.362;2023-11-21T06:36:59;6.30;99.90
46590;DHT22;32313;48.722;9.362;2023-11-21T06:39:25;6.40;99.90
46590;DHT22;32313;48.722;9.362;2023-11-21T06:41:50;6.40;99.90
46590;DHT22;32313;48.722;9.362;2023-11-21T06:44:16;6.40;99.90
46590;DHT22;32313;48.722;9.362;2023-11-21T06:46:42;6.40;99.90
46590;DHT22;32313;48.722;9.362;2023-11-21T06:49:08;6.50;99.90
46590;DHT22;32313;48.722;9.362;2023-11-21T06:51:33;6.50;99.90
46590;DHT22;32313;48.722;9.362;2023-11-21T06:53:59;6.50;99.90
46590;DHT22;32313;48.722;9.362;2023-11-21T06:56:25;6.50;99.90
46590;DHT22;32313;48.722;9.362;2023-11-21T06:58:51;6.50;99.90
46590;DHT22;32313;48.722;9.362;2023-11-21T07:01:19;6.50;99.90
46590;DHT22;32313;48.722;9.362;2023-11-21T07:03:45;6.60;99.90
46590;DHT22;32313;48.722;9.362;2023-11-21T07:06:11;6.60;99.90
46590;DHT22;32313;48.722;9.362;2023-11-21T07:08:37;6.60;99.90
46590;DHT22;32313;48.722;9.362;2023-11-21T07:11:03;6.70;99.90
46590;DHT22;32313;48.722;9.362;2023-11-21T07:13:30;6.70;99.90
46590;DHT22;32313;48.722;9.362;2023-11-21T07:15:56;6.70;99.90
46590;DHT22;32313;48.722;9.362;2023-11-21T07:18:22;6.80;99.90
46590;DHT22;32313;48.722;9.362;2023-11-21T07:20:48;6.80;99.90
46590;DHT22;32313;48.722;9.362;2023-11-21T07:23:14;6.90;99.90
46590;DHT22;32313;48.722;9.362;2023-11-21T07:25:41;6.90;99.90
46590;DHT22;32313;48.722;9.362;2023-11-21T07:28:09;7.00;99.90
46590;DHT22;32313;48.722;9.362;2023-11-21T07:30:35;7.00;99.90
46590;DHT22;32313;48.722;9.362;2023-11-21T07:33:00;7.00;99.90
46590;DHT22;32313;48.722;9.362;2023-11-21T07:35:26;7.10;99.90
46590;DHT22;32313;48.722;9.362;2023-11-21T07:37:52;7.10;99.90
46590;DHT22;32313;48.722;9.362;2023-11-21T07:40:18;7.20;99.90
46590;DHT22;32313;48.722;9.362;2023-11-21T07:42:43;7.30;99.90
46590;DHT22;32313;48.722;9.362;2023-11-21T07:45:10;7.40;99.90
46590;DHT22;32313;48.722;9.362;2023-11-21T07:47:36;7.40;99.90
46590;DHT22;32313;48.722;9.362;2023-11-21T07:50:05;7.50;99.90
46590;DHT22;32313;48.722;9.362;2023-11-21T07:52:32;7.60;99.90
46590;DHT22;32313;48.722;9.362;2023-11-21T07:54:59;7.70;99.90
46590;DHT22;32313;48.722;9.362;2023-11-21T07:57:24;7.80;99.90
46590;DHT22;32313;48.722;9.362;2023-11-21T07:59:50;7.90;99.90
46590;DHT22;32313;48.722;9.362;2023-11-21T08:02:16;8.00;99.90
46590;DHT22;32313;48.722;9.362;2023-11-21T08:04:43;8.00;99.90
46590;DHT22;32313;48.722;9.362;2023-11-21T08:07:10;8.00;99.90
46590;DHT22;32313;48.722;9.362;2023-11-21T08:09:36;8.00;99.90
46590;DHT22;32313;48.722;9.362;2023-11-21T08:12:02;8.00;99.90
46590;DHT22;32313;48.722;9.362;2023-11-21T08:14:28;8.00;99.90
46590;DHT22;32313;48.722;9.362;2023-11-21T08:16:54;8.00;99.90
46590;DHT22;32313;48.722;9.362;2023-11-21T08:19:23;7.90;99.90
46590;DHT22;32313;48.722;9.362;2023-11-21T08:21:50;7.90;99.90
46590;DHT22;32313;48.722;9.362;2023-11-21T08:24:16;7.90;99.90
46590;DHT22;32313;48.722;9.362;2023-11-21T08:26:42;7.80;99.90
46590;DHT22;32313;48.722;9.362;2023-11-21T08:29:08;7.90;99.90
46590;DHT22;32313;48.722;9.362;2023-11-21T08:31:34;7.90;99.90
46590;DHT22;32313;48.722;9.362;2023-11-21T08:34:00;7.90;99.90
46590;DHT22;32313;48.722;9.362;2023-11-21T08:36:28;7.80;99.90
46590;DHT22;32313;48.722;9.362;2023-11-21T08:38:54;7.80;99.90
46590;DHT22;32313;48.722;9.362;2023-11-21T08:41:20;7.80;99.90
46590;DHT22;32313;48.722;9.362;2023-11-21T08:43:49;7.90;99.90
46590;DHT22;32313;48.722;9.362;2023-11-21T08:46:15;7.90;99.90
46590;DHT22;32313;48.722;9.362;2023-11-21T08:48:42;8.00;99.90
46590;DHT22;32313;48.722;9.362;2023-11-21T08:51:10;8.00;99.90
46590;DHT22;32313;48.722;9.362;2023-11-21T08:53:37;8.00;99.90
46590;DHT22;32313;48.722;9.362;2023-11-21T08:56:03;7.90;99.90
46590;DHT22;32313;48.722;9.362;2023-11-21T08:58:30;7.90;99.90
46590;DHT22;32313;48.722;9.362;2023-11-21T09:00:57;7.90;99.90
46590;DHT22;32313;48.722;9.362;2023-11-21T09:03:23;7.90;99.90
46590;DHT22;32313;48.722;9.362;2023-11-21T09:05:49;7.80;99.90
46590;DHT22;32313;48.722;9.362;2023-11-21T09:08:14;7.90;99.90
46590;DHT22;32313;48.722;9.362;2023-11-21T09:10:40;7.90;99.90
46590;DHT22;32313;48.722;9.362;2023-11-21T09:13:07;8.00;99.90
46590;DHT22;32313;48.722;9.362;2023-11-21T09:15:34;8.10;99.90
46590;DHT22;32313;48.722;9.362;2023-11-21T09:18:00;8.10;99.90
46590;DHT22;32313;48.722;9.362;2023-11-21T09:20:33;8.20;99.90
46590;DHT22;32313;48.722;9.362;2023-11-21T09:22:58;8.30;99.90
46590;DHT22;32313;48.722;9.362;2023-11-21T09:25:24;8.40;99.90
46590;DHT22;32313;48.722;9.362;2023-11-21T09:27:50;8.50;99.90
46590;DHT22;32313;48.722;9.362;2023-11-21T09:30:15;8.60;99.90
46590;DHT22;32313;48.722;9.362;2023-11-21T09:32:42;8.70;99.90
46590;DHT22;32313;48.722;9.362;2023-11-21T09:35:11;8.80;99.90
46590;DHT22;32313;48.722;9.362;2023-11-21T09:37:36;8.90;99.90
46590;DHT22;32313;48.722;9.362;2023-11-21T09:40:05;9.00;99.90
46590;DHT22;32313;48.722;9.362;2023-11-21T09:42:49;9.10;99.90
46590;DHT22;32313;48.722;9.362;2023-11-21T09:45:27;9.20;99.90
46590;DHT22;32313;48.722;9.362;2023-11-21T09:47:54;9.40;99.90
46590;DHT22;32313;48.722;9.362;2023-11-21T09:50:24;9.60;99.90
46590;DHT22;32313;48.722;9.362;2023-11-21T09:52:58;9.80;99.90
46590;DHT22;32313;48.722;9.362;2023-11-21T09:55:28;10.00;99.90
46590;DHT22;32313;48.722;9.362;2023-11-21T09:58:02;10.20;99.90
46590;DHT22;32313;48.722;9.362;2023-11-21T10:00:29;10.40;99.90
46590;DHT22;32313;48.722;9.362;2023-11-21T10:02:58;10.70;99.90
46590;DHT22;32313;48.722;9.362;2023-11-21T10:05:24;11.70;99.90
46590;DHT22;32313;48.722;9.362;2023-11-21T10:07:50;13.00;99.90
46590;DHT22;32313;48.722;9.362;2023-11-21T10:10:19;13.50;99.90
46590;DHT22;32313;48.722;9.362;2023-11-21T10:12:50;13.30;99.90
46590;DHT22;32313;48.722;9.362;2023-11-21T10:15:21;12.90;99.90
46590;DHT22;32313;48.722;9.362;2023-11-21T10:17:51;12.40;99.90
46590;DHT22;32313;48.722;9.362;2023-11-21T10:20:19;12.00;99.90
46590;DHT22;32313;48.722;9.362;2023-11-21T10:22:45;11.50;99.90
46590;DHT22;32313;48.722;9.362;2023-11-21T10:25:12;11.10;99.90
46590;DHT22;32313;48.722;9.362;2023-11-21T10:27:40;10.80;99.90
46590;DHT22;32313;48.722;9.362;2023-11-21T10:30:10;10.60;99.90
46590;DHT22;32313;48.722;9.362;2023-11-21T10:32:38;10.50;99.90
46590;DHT22;32313;48.722;9.362;2023-11-21T10:35:09;10.50;99.90
46590;DHT22;32313;48.722;9.362;2023-11-21T10:37:41;10.40;99.90
46590;DHT22;32313;48.722;9.362;2023-11-21T10:40:10;10.40;99.90
46590;DHT22;32313;48.722;9.362;2023-11-21T10:42:42;10.40;99.90
46590;DHT22;32313;48.722;9.362;2023-11-21T10:45:08;10.20;99.90
46590;DHT22;32313;48.722;9.362;2023-11-21T10:47:44;10.20;99.90
46590;DHT22;32313;48.722;9.362;2023-11-21T10:50:10;10.10;99.90
46590;DHT22;32313;48.722;9.362;2023-11-21T10:52:37;10.00;99.90
46590;DHT22;32313;48.722;9.362;2023-11-21T10:55:25;10.00;99.90
46590;DHT22;32313;48.722;9.362;2023-11-21T10:57:53;10.00;99.90
46590;DHT22;32313;48.722;9.362;2023-11-21T11:00:20;9.90;99.90
46590;DHT22;32313;48.722;9.362;2023-11-21T11:02:51;9.80;99.90
46590;DHT22;32313;48.722;9.362;2023-11-21T11:05:22;9.70;99.90
46590;DHT22;32313;48.722;9.362;2023-11-21T11:07:52;9.70;99.90
46590;DHT22;32313;48.722;9.362;2023-11-21T11:10:26;9.70;99.90
46590;DHT22;32313;48.722;9.362;2023-11-21T11:12:53;9.70;99.90
46590;DHT22;32313;48.722;9.362;2023-11-21T11:15:20;9.60;99.90
46590;DHT22;32313;48.722;9.362;2023-11-21T11:17:46;9.60;99.90
46590;DHT22;32313;48.722;9.362;2023-11-21T11:20:13;9.50;99.90
46590;DHT22;32313;48.722;9.362;2023-11-21T11:26:08;9.40;99.90
46590;DHT22;32313;48.722;9.362;2023-11-21T11:29:21;9.30;99.90
46590;DHT22;32313;48.722;9.362;2023-11-21T11:34:48;9.30;99.90
46590;DHT22;32313;48.722;9.362;2023-11-21T11:37:19;9.30;99.90
46590;DHT22;32313;48.722;9.362;2023-11-21T11:39:45;9.30;99.90
46590;DHT22;32313;48.722;9.362;2023-11-21T11:42:16;9.20;99.90
46590;DHT22;32313;48.722;9.362;2023-11-21T11:47:20;9.10;99.90
46590;DHT22;32313;48.722;9.362;2023-11-21T11:50:08;9.00;99.90
46590;DHT22;32313;48.722;9.362;2023-11-21T11:52:54;9.00;99.90
46590;DHT22;32313;48.722;9.362;2023-11-21T11:55:24;8.90;99.90
46590;DHT22;32313;48.722;9.362;2023-11-21T11:57:54;8.90;99.90
46590;DHT22;32313;48.722;9.362;2023-11-21T12:03:00;8.80;99.90
46590;DHT22;32313;48.722;9.362;2023-11-21T12:05:29;8.70;99.90
46590;DHT22;32313;48.722;9.362;2023-11-21T12:08:00;8.70;99.90
46590;DHT22;32313;48.722;9.362;2023-11-21T12:10:28;8.80;99.90
46590;DHT22;32313;48.722;9.362;2023-11-21T12:13:00;8.70;99.90
46590;DHT22;32313;48.722;9.362;2023-11-21T12:15:27;8.70;99.90
46590;DHT22;32313;48.722;9.362;2023-11-21T12:17:56;8.70;99.90
46590;DHT22;32313;48.722;9.362;2023-11-21T12:20:23;8.70;99.90
46590;DHT22;32313;48.722;9.362;2023-11-21T12:22:59;8.70;99.90
46590;DHT22;32313;48.722;9.362;2023-11-21T12:25:27;8.80;99.90
46590;DHT22;32313;48.722;9.362;2023-11-21T12:28:00;8.80;99.90
46590;DHT22;32313;48.722;9.362;2023-11-21T12:30:28;8.90;99.90
46590;DHT22;32313;48.722;9.362;2023-11-21T12:32:57;8.90;99.90
46590;DHT22;32313;48.722;9.362;2023-11-21T12:35:28;9.10;99.90
46590;DHT22;32313;48.722;9.362;2023-11-21T12:37:55;9.20;99.90
46590;DHT22;32313;48.722;9.362;2023-11-21T12:40:24;9.30;99.90
46590;DHT22;32313;48.722;9.362;2023-11-21T12:42:56;9.40;99.90
46590;DHT22;32313;48.722;9.362;2023-11-21T12:45:26;9.50;99.90
46590;DHT22;32313;48.722;9.362;2023-11-21T12:50:27;10.00;99.90
46590;DHT22;32313;48.722;9.362;2023-11-21T12:53:10;10.30;99.90
46590;DHT22;32313;48.722;9.362;2023-11-21T12:55:43;10.20;99.90
46590;DHT22;32313;48.722;9.362;2023-11-21T12:58:15;10.30;99.90
46590;DHT22;32313;48.722;9.362;2023-11-21T13:00:49;10.90;99.90
46590;DHT22;32313;48.722;9.362;2023-11-21T13:03:16;11.60;99.90
46590;DHT22;32313;48.722;9.362;2023-11-21T13:05:44;11.60;99.90
46590;DHT22;32313;48.722;9.362;2023-11-21T13:08:12;11.40;99.90
46590;DHT22;32313;48.722;9.362;2023-11-21T13:10:44;11.00;99.90
46590;DHT22;32313;48.722;9.362;2023-11-21T13:13:13;10.70;99.90
46590;DHT22;32313;48.722;9.362;2023-11-21T13:15:59;10.90;99.90
46590;DHT22;32313;48.722;9.362;2023-11-21T13:18:30;12.40;99.90
46590;DHT22;32313;48.722;9.362;2023-11-21T13:20:59;13.20;99.90
46590;DHT22;32313;48.722;9.362;2023-11-21T13:23:25;12.90;99.90
46590;DHT22;32313;48.722;9.362;2023-11-21T13:25:52;12.40;99.90
46590;DHT22;32313;48.722;9.362;2023-11-21T13:28:18;11.90;99.90
46590;DHT22;32313;48.722;9.362;2023-11-21T13:30:47;11.60;99.90
46590;DHT22;32313;48.722;9.362;2023-11-21T13:33:14;11.20;99.90
46590;DHT22;32313;48.722;9.362;2023-11-21T13:35:43;10.80;99.90
46590;DHT22;32313;48.722;9.362;2023-11-21T13:38:15;10.60;99.90
46590;DHT22;32313;48.722;9.362;2023-11-21T13:40:48;10.40;99.90
46590;DHT22;32313;48.722;9.362;2023-11-21T13:43:20;10.30;99.90
46590;DHT22;32313;48.722;9.362;2023-11-21T13:45:48;10.10;99.90
46590;DHT22;32313;48.722;9.362;2023-11-21T13:48:20;10.10;99.90
46590;DHT22;32313;48.722;9.362;2023-11-21T13:50:53;10.00;99.90
46590;DHT22;32313;48.722;9.362;2023-11-21T13:53:24;10.00;99.90
46590;DHT22;32313;48.722;9.362;2023-11-21T13:55:51;9.90;99.90
46590;DHT22;32313;48.722;9.362;2023-11-21T13:58:20;9.80;99.90
46590;DHT22;32313;48.722;9.362;2023-11-21T14:01:00;9.80;99.90
46590;DHT22;32313;48.722;9.362;2023-11-21T14:03:31;9.70;99.90
46590;DHT22;32313;48.722;9.362;2023-11-21T14:06:10;9.70;99.90
46590;DHT22;32313;48.722;9.362;2023-11-21T14:08:41;9.70;99.90
46590;DHT22;32313;48.722;9.362;2023-11-21T14:11:07;9.50;99.90
46590;DHT22;32313;48.722;9.362;2023-11-21T14:13:33;9.50;99.90
46590;DHT22;32313;48.722;9.362;2023-11-21T14:15:59;9.40;99.90
46590;DHT22;32313;48.722;9.362;2023-11-21T14:18:28;9.40;99.90
46590;DHT22;32313;48.722;9.362;2023-11-21T14:21:06;9.30;99.90
46590;DHT22;32313;48.722;9.362;2023-11-21T14:23:33;9.30;99.90
46590;DHT22;32313;48.722;9.362;2023-11-21T14:26:01;9.20;99.90
46590;DHT22;32313;48.722;9.362;2023-11-21T14:28:27;9.10;99.90
46590;DHT22;32313;48.722;9.362;2023-11-21T14:30:53;9.10;99.90
46590;DHT22;32313;48.722;9.362;2023-11-21T14:33:18;9.00;99.90
46590;DHT22;32313;48.722;9.362;2023-11-21T14:35:44;8.90;99.90
46590;DHT22;32313;48.722;9.362;2023-11-21T14:38:10;8.80;99.90
46590;DHT22;32313;48.722;9.362;2023-11-21T14:40:36;8.80;99.90
46590;DHT22;32313;48.722;9.362;2023-11-21T14:43:03;8.70;99.90
46590;DHT22;32313;48.722;9.362;2023-11-21T14:45:32;8.70;99.90
46590;DHT22;32313;48.722;9.362;2023-11-21T14:47:59;8.70;99.90
46590;DHT22;32313;48.722;9.362;2023-11-21T14:50:33;8.60;99.90
46590;DHT22;32313;48.722;9.362;2023-11-21T14:53:09;8.60;99.90
46590;DHT22;32313;48.722;9.362;2023-11-21T14:55:38;8.50;99.90
46590;DHT22;32313;48.722;9.362;2023-11-21T14:58:52;8.50;99.90
46590;DHT22;32313;48.722;9.362;2023-11-21T15:01:18;8.40;99.90
46590;DHT22;32313;48.722;9.362;2023-11-21T15:03:52;8.40;99.90
46590;DHT22;32313;48.722;9.362;2023-11-21T15:06:19;8.30;99.90
46590;DHT22;32313;48.722;9.362;2023-11-21T15:08:54;8.30;99.90
46590;DHT22;32313;48.722;9.362;2023-11-21T15:11:40;8.20;99.90
46590;DHT22;32313;48.722;9.362;2023-11-21T15:14:10;8.20;99.90
46590;DHT22;32313;48.722;9.362;2023-11-21T15:16:38;8.20;99.90
46590;DHT22;32313;48.722;9.362;2023-11-21T15:19:08;8.10;99.90
46590;DHT22;32313;48.722;9.362;2023-11-21T15:21:36;8.10;99.90
46590;DHT22;32313;48.722;9.362;2023-11-21T15:24:02;8.10;99.90
46590;DHT22;32313;48.722;9.362;2023-11-21T15:26:28;8.00;99.90
46590;DHT22;32313;48.722;9.362;2023-11-21T15:28:54;8.00;99.90
46590;DHT22;32313;48.722;9.362;2023-11-21T15:31:20;8.00;99.90
46590;DHT22;32313;48.722;9.362;2023-11-21T15:33:51;7.90;99.90
46590;DHT22;32313;48.722;9.362;2023-11-21T15:36:18;7.90;99.90
46590;DHT22;32313;48.722;9.362;2023-11-21T15:38:45;7.90;99.90
46590;DHT22;32313;48.722;9.362;2023-11-21T15:41:10;7.90;99.90
46590;DHT22;32313;48.722;9.362;2023-11-21T15:43:37;7.80;99.90
46590;DHT22;32313;48.722;9.362;2023-11-21T15:46:03;7.80;99.90
46590;DHT22;32313;48.722;9.362;2023-11-21T15:48:34;7.80;99.90
46590;DHT22;32313;48.722;9.362;2023-11-21T15:51:00;7.80;99.90
46590;DHT22;32313;48.722;9.362;2023-11-21T15:53:28;7.80;99.90
46590;DHT22;32313;48.722;9.362;2023-11-21T15:55:54;7.80;99.90
46590;DHT22;32313;48.722;9.362;2023-11-21T15:58:20;7.80;99.90
46590;DHT22;32313;48.722;9.362;2023-11-21T16:00:45;7.80;99.90
46590;DHT22;32313;48.722;9.362;2023-11-21T16:03:11;7.80;99.90